Terminal Aerodrome Forecast
Issued by NWS

Home | Current Version | Previous Version | Text Only | Print | Product List | Glossary On
Versions: 1 2 3 4 5 6 7 8 9 10 11 12 13 14 15 16 17 18 19
000
FTUS41 KCAR 291730
TAFHUL
TAF
KHUL 291730Z 2918/3018 VRB03KT P6SM FEW200
     FM300800 13006KT 6SM -SN SCT009 BKN015 OVC070
     FM301500 12007KT 1SM -SN OVC015=

USA.gov is the U.S. government's official web portal to all federal, state and local government web resources and services.